Terminal Aerodrome Forecast
Issued by NWS

Home | Current Version | Previous Version | Text Only | Print | Product List | Glossary On
Versions: 1 2 3 4 5 6 7 8 9 10 11 12 13 14 15 16 17
135
FTUS41 KPBZ 200259 AAB
TAFDUJ
TAF AMD
KDUJ 200259Z 2003/2024 27005KT 1SM BR BKN002
      TEMPO 2003/2006 1/4SM FG VV002
     FM200600 00000KT 1/4SM FG VV002
     FM201200 25003KT 2SM BR SCT003
     FM201400 00000KT P6SM SCT200=

USA.gov is the U.S. government's official web portal to all federal, state and local government web resources and services.